Roanoke, Louisiana
Current Conditions -  °F | °C
As of 5:20 PM on Saturday 25 Oct 2014 (Local Time) from K3R7 Reporting Station
Clear Clear  
Wind Chill: 81°   Ceiling: Unl
Heat Index: 81°   Visibility: 10mi
Dew Point: 44°   Wind: 0mph
Humidity: 28%   Direction: NA
Pressure: 30.09"   Gusts: NA
Location:  30.24°N, 92.75°W
Report Text: K3R7 252220Z AUTO 00000KT 10SM CLR 27/07 A3009 RMK AO2 T02700069
Loading
Personal Weather Stations






























Interactive Weather Map
Tropical Storm Tracking
New forecast layout! Learn more

10-Day Weather Forecast

Advertisements
Track Severe Weather on mobile